createdAt,value
2019-02-27T00:00:28.172Z,16.80
2019-02-27T00:02:56.934Z,16.80
2019-02-27T00:05:26.149Z,16.80
2019-02-27T00:07:54.997Z,16.70
2019-02-27T00:10:23.720Z,16.70
2019-02-27T00:12:52.595Z,16.70
2019-02-27T00:15:21.400Z,16.70
2019-02-27T00:17:51.493Z,16.60
2019-02-27T00:20:20.198Z,16.60
2019-02-27T00:22:50.747Z,16.50
2019-02-27T00:25:19.416Z,16.60
2019-02-27T00:27:49.331Z,16.60
2019-02-27T00:30:18.415Z,16.50
2019-02-27T00:32:50.951Z,16.50
2019-02-27T00:35:17.354Z,16.50
2019-02-27T00:37:46.115Z,16.40
2019-02-27T00:40:19.640Z,16.40
2019-02-27T00:42:54.454Z,16.40
2019-02-27T00:45:25.086Z,16.30
2019-02-27T00:47:54.164Z,16.10
2019-02-27T00:50:22.953Z,16.10
2019-02-27T00:52:51.742Z,16.10
2019-02-27T00:55:20.638Z,16.00
2019-02-27T00:57:51.755Z,15.90
2019-02-27T01:00:20.482Z,16.00
2019-02-27T01:02:52.886Z,15.90
2019-02-27T01:05:19.469Z,15.60
2019-02-27T01:07:48.255Z,15.80
2019-02-27T01:10:17.032Z,15.60
2019-02-27T01:12:46.154Z,15.70
2019-02-27T01:15:14.988Z,15.70
2019-02-27T01:17:43.726Z,15.70
2019-02-27T01:20:15.312Z,15.70
2019-02-27T01:22:44.045Z,15.70
2019-02-27T01:25:12.936Z,15.70
2019-02-27T01:27:41.700Z,15.60
2019-02-27T01:30:13.574Z,15.60
2019-02-27T01:32:42.157Z,15.60
2019-02-27T01:35:17.797Z,15.50
2019-02-27T01:37:43.011Z,15.50
2019-02-27T01:40:17.422Z,15.50
2019-02-27T01:42:44.063Z,15.50
2019-02-27T01:45:15.090Z,15.50
2019-02-27T01:47:43.675Z,15.50
2019-02-27T01:50:29.675Z,15.40
2019-02-27T01:52:58.466Z,15.40
2019-02-27T01:55:27.256Z,15.40
2019-02-27T01:57:56.042Z,15.40
2019-02-27T02:00:24.731Z,15.40
2019-02-27T02:02:53.416Z,15.30
2019-02-27T02:05:26.373Z,15.40
2019-02-27T02:07:52.515Z,15.30
2019-02-27T02:10:21.094Z,15.30
2019-02-27T02:13:01.988Z,15.30
2019-02-27T02:15:48.366Z,15.30
2019-02-27T02:18:35.143Z,15.30
2019-02-27T02:21:15.995Z,15.20
2019-02-27T02:24:08.897Z,15.20
2019-02-27T02:26:49.463Z,15.20
2019-02-27T02:29:52.936Z,15.20
2019-02-27T02:32:38.558Z,15.10
2019-02-27T02:35:34.777Z,15.00
2019-02-27T02:38:30.797Z,15.10
2019-02-27T02:41:07.969Z,15.00
2019-02-27T02:43:50.385Z,14.90
2019-02-27T02:46:28.288Z,14.90
2019-02-27T02:49:07.896Z,14.90
2019-02-27T02:51:42.351Z,14.90
2019-02-27T02:54:25.885Z,15.00
2019-02-27T02:57:24.876Z,14.90
2019-02-27T03:00:19.880Z,14.90
2019-02-27T03:03:16.107Z,14.80
2019-02-27T03:06:16.135Z,14.80
2019-02-27T03:08:55.433Z,14.70
2019-02-27T03:11:43.202Z,14.60
2019-02-27T03:14:27.247Z,14.60
2019-02-27T03:17:18.282Z,14.60
2019-02-27T03:20:04.043Z,14.50
2019-02-27T03:23:15.341Z,14.50
2019-02-27T03:25:55.150Z,14.50
2019-02-27T03:28:40.978Z,14.40
2019-02-27T03:31:18.483Z,14.30
2019-02-27T03:34:05.506Z,14.30
2019-02-27T03:36:43.244Z,14.30
2019-02-27T03:39:36.314Z,14.30
2019-02-27T03:42:20.241Z,14.30
2019-02-27T03:45:11.274Z,14.20
2019-02-27T03:47:52.910Z,14.30
2019-02-27T03:50:49.875Z,14.20
2019-02-27T03:53:25.537Z,14.20
2019-02-27T03:56:14.090Z,14.20
2019-02-27T03:58:54.757Z,14.20
2019-02-27T04:01:46.155Z,14.20
2019-02-27T04:04:53.252Z,14.20
2019-02-27T04:07:40.061Z,14.10
2019-02-27T04:10:08.732Z,14.00
2019-02-27T04:12:37.349Z,13.80
2019-02-27T04:15:08.472Z,13.90
2019-02-27T04:17:36.219Z,13.90
2019-02-27T04:20:05.660Z,13.90
2019-02-27T04:22:37.495Z,13.80
2019-02-27T04:25:06.389Z,13.90
2019-02-27T04:27:35.066Z,14.00
2019-02-27T04:30:04.775Z,13.90
2019-02-27T04:32:33.460Z,13.80
2019-02-27T04:35:05.895Z,13.80
2019-02-27T04:37:32.373Z,13.80
2019-02-27T04:40:00.946Z,13.80
2019-02-27T04:42:29.631Z,13.90
2019-02-27T04:44:58.215Z,13.80
2019-02-27T04:47:29.174Z,13.80
2019-02-27T04:49:57.098Z,13.80
2019-02-27T04:52:25.813Z,13.80
2019-02-27T04:54:54.385Z,13.70
2019-02-27T04:57:23.071Z,13.70
2019-02-27T04:59:52.325Z,13.60
2019-02-27T05:02:21.566Z,13.70
2019-02-27T05:04:50.868Z,13.70
2019-02-27T05:07:20.259Z,13.80
2019-02-27T05:09:49.577Z,13.80
2019-02-27T05:12:18.256Z,13.90
2019-02-27T05:14:47.146Z,13.90
2019-02-27T05:17:16.035Z,14.00
2019-02-27T05:19:44.824Z,14.10
2019-02-27T05:22:13.406Z,14.30
2019-02-27T05:24:41.986Z,14.50
2019-02-27T05:27:10.883Z,14.40
2019-02-27T05:29:39.778Z,14.10
2019-02-27T05:32:08.670Z,14.10
2019-02-27T05:34:37.559Z,14.00
2019-02-27T05:37:06.452Z,14.00
2019-02-27T05:39:35.002Z,13.80
2019-02-27T05:42:06.126Z,13.80
2019-02-27T05:44:33.854Z,13.60
2019-02-27T05:47:02.605Z,13.50
2019-02-27T05:49:31.179Z,13.50
2019-02-27T05:51:59.865Z,13.50
2019-02-27T05:54:29.981Z,13.40
2019-02-27T05:56:58.675Z,13.40
2019-02-27T05:59:29.329Z,13.40
2019-02-27T06:01:57.678Z,13.20
2019-02-27T06:04:26.361Z,13.30
2019-02-27T06:06:55.050Z,13.40
2019-02-27T06:09:23.829Z,13.40
2019-02-27T06:11:52.513Z,13.40
2019-02-27T06:14:21.917Z,13.60
2019-02-27T06:16:50.788Z,13.80
2019-02-27T06:19:19.367Z,13.80
2019-02-27T06:21:47.846Z,13.80
2019-02-27T06:24:16.551Z,13.70
2019-02-27T06:26:45.237Z,13.80
2019-02-27T06:29:13.822Z,13.70
2019-02-27T06:31:42.399Z,13.60
2019-02-27T06:34:11.085Z,13.60
2019-02-27T06:36:42.807Z,13.60
2019-02-27T06:39:09.887Z,13.60
2019-02-27T06:41:39.954Z,13.60
2019-02-27T06:44:08.902Z,13.50
2019-02-27T06:46:37.689Z,13.50
2019-02-27T06:49:06.579Z,13.50
2019-02-27T06:51:35.864Z,13.50
2019-02-27T06:54:05.155Z,13.40
2019-02-27T06:56:33.752Z,13.30
2019-02-27T06:59:02.323Z,13.30
2019-02-27T07:01:31.022Z,13.20
2019-02-27T07:04:02.299Z,13.30
2019-02-27T07:06:29.823Z,13.20
2019-02-27T07:08:58.817Z,13.10
2019-02-27T07:11:27.603Z,13.00
2019-02-27T07:13:56.292Z,13.20
2019-02-27T07:16:25.071Z,13.10
2019-02-27T07:18:53.768Z,13.10
2019-02-27T07:21:22.427Z,13.00
2019-02-27T07:23:51.137Z,13.00
2019-02-27T07:26:20.322Z,13.00
2019-02-27T07:28:49.114Z,13.00
2019-02-27T07:31:18.461Z,13.10
2019-02-27T07:33:47.301Z,13.10
2019-02-27T07:36:16.092Z,13.10
2019-02-27T07:38:44.877Z,13.20
2019-02-27T07:41:17.521Z,13.20
2019-02-27T07:43:44.710Z,13.30
2019-02-27T07:46:13.798Z,13.30
2019-02-27T07:48:42.555Z,13.50
2019-02-27T07:51:11.287Z,13.70
2019-02-27T07:53:39.872Z,13.80
2019-02-27T07:56:08.443Z,13.90
2019-02-27T07:58:37.230Z,14.10
2019-02-27T08:01:05.718Z,14.30
2019-02-27T08:03:34.585Z,14.40
2019-02-27T08:06:03.374Z,14.50
2019-02-27T08:08:31.987Z,14.80
2019-02-27T08:11:00.847Z,14.90
2019-02-27T08:13:30.307Z,15.00
2019-02-27T08:15:59.151Z,15.20
2019-02-27T08:18:30.374Z,15.30
2019-02-27T08:20:58.027Z,15.60
2019-02-27T08:23:26.944Z,15.70
2019-02-27T08:25:55.720Z,16.00
2019-02-27T08:28:24.714Z,16.10
2019-02-27T08:30:54.937Z,16.10
2019-02-27T08:33:23.716Z,16.00
2019-02-27T08:35:52.398Z,15.90
2019-02-27T08:38:21.186Z,15.80
2019-02-27T08:40:49.771Z,15.60
2019-02-27T08:43:18.785Z,15.60
2019-02-27T08:45:47.547Z,15.50
2019-02-27T08:48:17.411Z,15.70
2019-02-27T08:50:46.964Z,15.90
2019-02-27T08:53:15.648Z,15.90
2019-02-27T08:55:44.845Z,15.90
2019-02-27T08:58:13.533Z,15.70
2019-02-27T09:00:47.036Z,15.60
2019-02-27T09:03:20.037Z,15.50
2019-02-27T09:05:42.765Z,15.50
2019-02-27T09:08:11.459Z,15.50
2019-02-27T09:10:40.134Z,15.40
2019-02-27T09:13:09.128Z,15.50
2019-02-27T09:15:37.812Z,15.90
2019-02-27T09:18:06.538Z,15.80
2019-02-27T09:20:35.172Z,15.80
2019-02-27T09:23:04.193Z,15.80
2019-02-27T09:25:32.854Z,15.90
2019-02-27T09:28:03.435Z,16.10
2019-02-27T09:30:31.846Z,16.30
2019-02-27T09:33:00.645Z,16.50
2019-02-27T09:35:32.564Z,16.60
2019-02-27T09:37:59.859Z,16.70
2019-02-27T09:40:29.867Z,16.70
2019-02-27T09:42:58.872Z,16.80
2019-02-27T09:45:31.862Z,16.80
2019-02-27T09:48:00.889Z,16.90
2019-02-27T09:50:31.976Z,16.90
2019-02-27T09:53:01.102Z,16.90
2019-02-27T09:55:31.303Z,16.80
2019-02-27T09:57:59.882Z,16.90
2019-02-27T10:00:39.859Z,17.00
2019-02-27T10:03:08.719Z,17.00
2019-02-27T10:05:37.631Z,17.10
2019-02-27T10:08:07.702Z,17.10
2019-02-27T10:10:36.634Z,17.10
2019-02-27T10:13:05.420Z,17.10
2019-02-27T10:15:34.529Z,17.10
2019-02-27T10:18:03.658Z,17.00
2019-02-27T10:20:36.848Z,17.20
2019-02-27T10:23:02.816Z,17.50
2019-02-27T10:25:31.616Z,17.60
2019-02-27T10:28:03.423Z,17.60
2019-02-27T10:30:30.335Z,17.40
2019-02-27T10:32:59.080Z,17.40
2019-02-27T10:35:29.525Z,17.40
2019-02-27T10:37:58.121Z,17.50
2019-02-27T10:40:27.284Z,17.50
2019-02-27T10:42:55.979Z,17.60
2019-02-27T10:45:24.755Z,17.60
2019-02-27T10:47:53.336Z,17.80
2019-02-27T10:50:22.040Z,17.80
2019-02-27T10:52:50.786Z,18.00
2019-02-27T10:55:23.180Z,17.80
2019-02-27T10:57:52.074Z,17.70
2019-02-27T11:00:33.409Z,17.50
2019-02-27T11:03:02.408Z,17.70
2019-02-27T11:05:38.611Z,17.70
2019-02-27T11:08:07.392Z,18.10
2019-02-27T11:10:36.386Z,18.30
2019-02-27T11:13:06.662Z,18.50
2019-02-27T11:15:35.284Z,18.20
2019-02-27T11:18:05.429Z,18.10
2019-02-27T11:20:34.237Z,18.00
2019-02-27T11:23:06.448Z,18.00
2019-02-27T11:25:33.401Z,18.10
2019-02-27T11:28:02.117Z,18.40
2019-02-27T11:30:37.067Z,18.50
2019-02-27T11:33:06.034Z,18.50
2019-02-27T11:35:34.908Z,18.70
2019-02-27T11:38:03.903Z,18.70
2019-02-27T11:40:32.590Z,18.70
2019-02-27T11:43:04.163Z,18.80
2019-02-27T11:45:31.582Z,18.80
2019-02-27T11:48:00.269Z,18.90
2019-02-27T11:50:29.158Z,19.00
2019-02-27T11:53:01.851Z,18.90
2019-02-27T11:55:28.179Z,18.90
2019-02-27T11:57:56.747Z,18.90
2019-02-27T12:00:27.574Z,19.00
2019-02-27T12:02:57.066Z,19.10
2019-02-27T12:05:30.252Z,19.20
2019-02-27T12:07:57.424Z,19.40
2019-02-27T12:10:32.974Z,19.50
2019-02-27T12:13:01.967Z,19.30
2019-02-27T12:15:30.754Z,19.30
2019-02-27T12:18:00.610Z,19.40
2019-02-27T12:20:30.085Z,19.60
2019-02-27T12:22:58.925Z,19.40
2019-02-27T12:25:29.955Z,19.50
2019-02-27T12:27:57.975Z,19.60
2019-02-27T12:30:31.060Z,19.60
2019-02-27T12:32:59.852Z,19.60
2019-02-27T12:35:32.936Z,19.50
2019-02-27T12:38:01.607Z,19.60
2019-02-27T12:40:30.291Z,19.60
2019-02-27T12:42:59.206Z,19.40
2019-02-27T12:45:29.638Z,19.60
2019-02-27T12:47:58.701Z,19.50
2019-02-27T12:50:31.699Z,19.60
2019-02-27T12:53:00.575Z,19.80
2019-02-27T12:55:29.364Z,19.90
2019-02-27T12:57:58.154Z,20.00
2019-02-27T13:00:31.957Z,19.90
2019-02-27T13:03:00.847Z,20.00
2019-02-27T13:05:29.742Z,20.00
2019-02-27T13:07:58.417Z,19.90
2019-02-27T13:10:33.006Z,19.70
2019-02-27T13:12:58.406Z,19.70
2019-02-27T13:15:30.517Z,19.70
2019-02-27T13:17:59.407Z,19.80
2019-02-27T13:20:29.081Z,19.90
2019-02-27T13:22:57.792Z,20.00
2019-02-27T13:25:26.593Z,20.00
2019-02-27T13:27:55.483Z,19.90
2019-02-27T13:30:26.323Z,19.70
2019-02-27T13:33:00.810Z,19.80
2019-02-27T13:35:28.532Z,19.80
2019-02-27T13:37:57.806Z,19.90
2019-02-27T13:40:27.628Z,20.10
2019-02-27T13:42:56.183Z,20.10
2019-02-27T13:45:28.537Z,20.10
2019-02-27T13:47:58.967Z,20.20
2019-02-27T13:50:30.323Z,20.20
2019-02-27T13:52:59.201Z,20.20
2019-02-27T13:55:28.097Z,20.40
2019-02-27T13:57:59.315Z,20.40
2019-02-27T14:00:32.342Z,20.40
2019-02-27T14:03:02.861Z,20.40
2019-02-27T14:05:34.917Z,20.40
2019-02-27T14:08:01.764Z,20.40
2019-02-27T14:10:32.113Z,20.40
2019-02-27T14:13:00.986Z,20.30
2019-02-27T14:15:31.327Z,20.30
2019-02-27T14:17:59.993Z,20.40
2019-02-27T14:20:29.199Z,20.60
2019-02-27T14:22:58.105Z,20.60
2019-02-27T14:25:32.917Z,20.60
2019-02-27T14:28:00.270Z,20.50
2019-02-27T14:30:41.026Z,20.50
2019-02-27T14:33:11.033Z,20.60
2019-02-27T14:35:40.045Z,20.50
2019-02-27T14:38:09.030Z,20.40
2019-02-27T14:40:40.944Z,20.50
2019-02-27T14:43:08.457Z,20.40
2019-02-27T14:45:40.089Z,20.50
2019-02-27T14:48:07.452Z,20.60
2019-02-27T14:50:37.633Z,20.50
2019-02-27T14:53:06.361Z,20.70
2019-02-27T14:55:36.144Z,20.80
2019-02-27T14:58:05.176Z,20.70
2019-02-27T15:00:40.047Z,20.70
2019-02-27T15:03:05.705Z,20.80
2019-02-27T15:05:36.504Z,20.70
2019-02-27T15:08:04.805Z,20.70
2019-02-27T15:10:33.419Z,20.70
2019-02-27T15:13:02.074Z,20.80
2019-02-27T15:15:31.928Z,20.80
2019-02-27T15:18:00.680Z,20.90
2019-02-27T15:20:30.367Z,20.80
2019-02-27T15:22:59.171Z,20.80
2019-02-27T15:25:28.010Z,20.80
2019-02-27T15:27:58.779Z,20.70
2019-02-27T15:30:29.625Z,20.80
2019-02-27T15:33:03.449Z,20.80
2019-02-27T15:35:28.632Z,20.80
2019-02-27T15:37:57.317Z,20.90
2019-02-27T15:40:30.419Z,20.90
2019-02-27T15:42:59.191Z,20.90
2019-02-27T15:45:28.720Z,20.80
2019-02-27T15:47:57.587Z,20.70
2019-02-27T15:50:34.761Z,20.70
2019-02-27T15:53:03.760Z,20.80
2019-02-27T15:55:34.282Z,20.70
2019-02-27T15:58:02.876Z,20.80
2019-02-27T16:00:31.571Z,20.70
2019-02-27T16:03:00.241Z,20.70
2019-02-27T16:05:31.403Z,20.70
2019-02-27T16:07:59.441Z,20.90
2019-02-27T16:10:28.772Z,20.80
2019-02-27T16:13:00.929Z,20.80
2019-02-27T16:15:27.875Z,20.70
2019-02-27T16:17:56.751Z,20.80
2019-02-27T16:20:27.292Z,20.80
2019-02-27T16:22:55.963Z,20.70
2019-02-27T16:25:25.799Z,20.60
2019-02-27T16:27:54.650Z,20.50
2019-02-27T16:30:31.106Z,20.50
2019-02-27T16:32:56.126Z,20.60
2019-02-27T16:35:24.902Z,20.70
2019-02-27T16:37:56.863Z,20.60
2019-02-27T16:40:24.993Z,20.50
2019-02-27T16:42:53.733Z,20.40
2019-02-27T16:45:38.797Z,20.30
2019-02-27T16:48:07.591Z,20.40
2019-02-27T16:50:36.233Z,20.30
2019-02-27T16:53:05.224Z,20.30
2019-02-27T16:55:36.910Z,20.30
2019-02-27T16:58:04.214Z,20.40
2019-02-27T17:00:35.736Z,20.40
2019-02-27T17:03:04.409Z,20.40
2019-02-27T17:05:33.098Z,20.40
2019-02-27T17:08:02.678Z,20.40
2019-02-27T17:10:36.320Z,20.30
2019-02-27T17:13:05.190Z,20.20
2019-02-27T17:15:35.952Z,20.20
2019-02-27T17:18:04.202Z,20.10
2019-02-27T17:20:32.728Z,20.10
2019-02-27T17:23:01.214Z,20.00
2019-02-27T17:25:30.314Z,19.90
2019-02-27T17:27:59.224Z,19.90
2019-02-27T17:30:36.425Z,19.90
2019-02-27T17:33:04.056Z,19.80
2019-02-27T17:35:33.213Z,19.80
2019-02-27T17:38:01.900Z,19.80
2019-02-27T17:40:30.481Z,19.70
2019-02-27T17:42:59.082Z,19.70
2019-02-27T17:45:28.058Z,19.60
2019-02-27T17:47:56.601Z,19.60
2019-02-27T17:50:25.151Z,19.50
2019-02-27T17:52:53.752Z,19.50
2019-02-27T17:55:22.284Z,19.50
2019-02-27T17:57:50.868Z,19.50
2019-02-27T18:00:40.405Z,19.40
2019-02-27T18:03:09.189Z,19.40
2019-02-27T18:05:37.815Z,19.30
2019-02-27T18:08:06.449Z,19.30
2019-02-27T18:10:37.636Z,19.20
2019-02-27T18:13:05.268Z,19.20
2019-02-27T18:15:33.878Z,19.10
2019-02-27T18:18:02.451Z,19.10
2019-02-27T18:20:32.011Z,19.10
2019-02-27T18:23:00.997Z,19.10
2019-02-27T18:25:29.656Z,19.10
2019-02-27T18:27:59.541Z,19.10
2019-02-27T18:30:28.775Z,19.00
2019-02-27T18:32:57.361Z,19.00
2019-02-27T18:35:28.797Z,18.90
2019-02-27T18:37:56.408Z,18.90
2019-02-27T18:40:25.018Z,18.90
2019-02-27T18:42:56.449Z,18.80
2019-02-27T18:45:28.735Z,18.90
2019-02-27T18:47:58.769Z,18.80
2019-02-27T18:50:27.530Z,18.70
2019-02-27T18:52:56.419Z,18.70
2019-02-27T18:55:29.528Z,18.70
2019-02-27T18:57:55.541Z,18.70
2019-02-27T19:00:25.341Z,18.70
2019-02-27T19:03:03.291Z,18.70
2019-02-27T19:05:32.109Z,18.70
2019-02-27T19:08:00.798Z,18.60
2019-02-27T19:10:29.477Z,18.50
2019-02-27T19:12:59.994Z,18.50
2019-02-27T19:15:28.493Z,18.40
2019-02-27T19:17:57.075Z,18.40
2019-02-27T19:20:31.469Z,18.40
2019-02-27T19:23:00.471Z,18.40
2019-02-27T19:25:34.123Z,18.30
2019-02-27T19:27:59.472Z,18.30
2019-02-27T19:30:28.578Z,18.30
2019-02-27T19:33:01.654Z,18.20
2019-02-27T19:35:27.383Z,18.00
2019-02-27T19:37:56.170Z,18.10
2019-02-27T19:40:29.846Z,18.00
2019-02-27T19:43:03.786Z,18.00
2019-02-27T19:45:32.480Z,17.80
2019-02-27T19:48:01.018Z,17.70
2019-02-27T19:50:29.675Z,17.70
2019-02-27T19:53:03.331Z,17.60
2019-02-27T19:55:29.464Z,17.50
2019-02-27T19:57:58.250Z,17.40
2019-02-27T20:00:33.747Z,17.50
2019-02-27T20:03:01.565Z,17.60
2019-02-27T20:05:30.664Z,17.60
2019-02-27T20:07:59.682Z,17.60
2019-02-27T20:10:31.030Z,17.60
2019-02-27T20:12:58.869Z,17.60
2019-02-27T20:15:27.441Z,17.60
2019-02-27T20:17:56.223Z,17.40
2019-02-27T20:20:25.417Z,17.40
2019-02-27T20:22:54.844Z,17.20
2019-02-27T20:25:25.513Z,17.30
2019-02-27T20:27:54.237Z,17.50
2019-02-27T20:30:25.292Z,17.30
2019-02-27T20:32:54.291Z,17.40
2019-02-27T20:35:22.952Z,17.30
2019-02-27T20:37:51.848Z,17.30
2019-02-27T20:40:21.191Z,17.30
2019-02-27T20:42:53.717Z,17.30
2019-02-27T20:45:23.960Z,17.30
2019-02-27T20:47:57.677Z,17.20
2019-02-27T20:50:34.806Z,17.10
2019-02-27T20:53:03.203Z,17.00
2019-02-27T20:55:31.930Z,16.90
2019-02-27T20:58:00.568Z,16.80
2019-02-27T21:00:29.153Z,16.90
2019-02-27T21:03:00.533Z,16.90
2019-02-27T21:05:28.566Z,16.90
2019-02-27T21:08:00.924Z,16.90
2019-02-27T21:10:29.532Z,16.90
2019-02-27T21:12:58.109Z,16.70
2019-02-27T21:15:29.271Z,16.70
2019-02-27T21:17:58.532Z,16.50
2019-02-27T21:20:27.291Z,16.50
2019-02-27T21:22:55.861Z,16.60
2019-02-27T21:25:24.688Z,16.70
2019-02-27T21:27:53.590Z,16.40
2019-02-27T21:30:23.096Z,16.60
2019-02-27T21:32:51.676Z,16.40
2019-02-27T21:35:20.462Z,16.30
2019-02-27T21:37:50.863Z,16.20
2019-02-27T21:40:19.749Z,16.30
2019-02-27T21:42:50.757Z,16.30
2019-02-27T21:45:20.934Z,16.40
2019-02-27T21:47:51.827Z,16.40
2019-02-27T21:50:22.765Z,16.30
2019-02-27T21:52:54.237Z,16.20
2019-02-27T21:55:22.634Z,16.20
2019-02-27T21:57:51.321Z,16.10
2019-02-27T22:00:26.663Z,16.00
2019-02-27T22:02:56.674Z,16.00
2019-02-27T22:05:25.350Z,16.00
2019-02-27T22:07:54.038Z,16.10
2019-02-27T22:10:23.142Z,16.10
2019-02-27T22:12:51.714Z,16.10
2019-02-27T22:15:30.160Z,15.90
2019-02-27T22:17:58.716Z,15.80
2019-02-27T22:20:27.400Z,15.90
2019-02-27T22:22:56.102Z,15.80
2019-02-27T22:25:29.869Z,15.80
2019-02-27T22:27:54.890Z,15.60
2019-02-27T22:30:23.992Z,15.60
2019-02-27T22:32:52.694Z,15.40
2019-02-27T22:35:21.357Z,15.30
2019-02-27T22:37:52.424Z,15.30
2019-02-27T22:40:21.645Z,15.20
2019-02-27T22:42:50.492Z,15.10
2019-02-27T22:45:20.008Z,15.20
2019-02-27T22:47:49.507Z,15.10
2019-02-27T22:50:19.142Z,15.20
2019-02-27T22:52:47.777Z,15.20
2019-02-27T22:55:16.575Z,15.00
2019-02-27T22:57:45.247Z,15.10
2019-02-27T23:00:27.564Z,15.10
2019-02-27T23:02:56.226Z,15.00
2019-02-27T23:05:25.096Z,15.00
2019-02-27T23:07:53.915Z,15.20
2019-02-27T23:10:22.704Z,15.00
2019-02-27T23:12:51.490Z,15.10
2019-02-27T23:15:20.093Z,15.10
2019-02-27T23:17:48.860Z,15.20
2019-02-27T23:20:21.002Z,15.20
2019-02-27T23:22:47.864Z,15.10
2019-02-27T23:25:16.562Z,15.00
2019-02-27T23:27:45.339Z,14.90
2019-02-27T23:30:15.896Z,14.90
2019-02-27T23:32:44.252Z,14.80
2019-02-27T23:35:16.010Z,14.90
2019-02-27T23:37:44.987Z,14.80
2019-02-27T23:40:17.149Z,14.60
2019-02-27T23:42:43.988Z,14.60
2019-02-27T23:45:12.579Z,14.60
2019-02-27T23:47:41.169Z,14.50
2019-02-27T23:50:12.021Z,14.50
2019-02-27T23:52:40.990Z,14.60
2019-02-27T23:55:10.074Z,14.70
2019-02-27T23:57:39.601Z,14.70
